Time;durP1;ratioP1;P1;durP2;ratioP2;P2;SDS_P1;SDS_P2;PMS_P1;PMS_P2;Temp;Humidity;BMP_temperature;BMP_pressure;BME280_temperature;BME280_humidity;BME280_pressure;Samples;Min_cycle;Max_cycle;Signal;HPM_P1;HPM_P2
2022/04/06 00:00:21;;;;;;;20.63;18.95;;;;;;;6.60;100.00;97895.25;2058545;28;20537;-73
2022/04/06 00:01:24;;;;;;;20.13;18.60;;;;;;;6.62;100.00;97896.53;2058432;28;20224;-73
2022/04/06 00:02:26;;;;;;;19.95;18.35;;;;;;;6.61;100.00;97894.97;2058207;28;20201;-73
2022/04/06 00:03:26;;;;;;;19.13;17.73;;;;;;;6.60;100.00;97887.31;2066347;28;20639;-73
2022/04/06 00:04:28;;;;;;;19.70;18.20;;;;;;;6.60;100.00;97898.69;2066854;28;20621;-73
2022/04/06 00:05:29;;;;;;;19.13;17.73;;;;;;;6.59;100.00;97891.81;2074185;28;20255;-73
2022/04/06 00:06:32;;;;;;;19.47;18.00;;;;;;;6.59;100.00;97881.22;2074015;28;20718;-73
2022/04/06 00:07:35;;;;;;;19.63;18.08;;;;;;;6.59;100.00;97893.69;2066157;28;20201;-72
2022/04/06 00:08:37;;;;;;;18.65;17.17;;;;;;;6.58;100.00;97894.78;2066264;28;20187;-72
2022/04/06 00:09:39;;;;;;;19.95;18.42;;;;;;;6.59;100.00;97891.03;2066157;28;20209;-73
2022/04/06 00:10:40;;;;;;;19.50;18.08;;;;;;;6.59;100.00;97891.81;2066231;28;20675;-73
2022/04/06 00:11:41;;;;;;;19.97;18.47;;;;;;;6.63;100.00;97886.72;2066101;28;20641;-73
2022/04/06 00:12:43;;;;;;;20.75;19.05;;;;;;;6.61;100.00;97892.31;2058082;28;20211;-72
2022/04/06 00:13:47;;;;;;;20.08;18.67;;;;;;;6.62;100.00;97893.88;2057710;28;20210;-73
2022/04/06 00:14:54;;;;;;;20.23;18.58;;;;;;;6.62;100.00;97899.19;2066484;28;20363;-73
2022/04/06 00:15:54;;;;;;;19.88;18.48;;;;;;;6.60;100.00;97896.03;2073981;28;20280;-72
2022/04/06 00:17:02;;;;;;;19.13;17.83;;;;;;;6.65;100.00;97898.59;2074355;28;20727;-73
2022/04/06 00:18:04;;;;;;;19.95;18.45;;;;;;;6.70;100.00;97898.47;2073598;28;20420;-73
2022/04/06 00:19:05;;;;;;;19.08;17.77;;;;;;;6.75;100.00;97898.34;2066812;28;20189;-73
2022/04/06 00:20:08;;;;;;;18.90;17.60;;;;;;;6.76;100.00;97896.47;2066752;28;20189;-73
2022/04/06 00:21:13;;;;;;;19.67;18.17;;;;;;;6.80;100.00;97906.22;2066247;28;20284;-72
2022/04/06 00:22:16;;;;;;;19.55;18.05;;;;;;;6.82;100.00;97907.78;2066859;28;20498;-73
2022/04/06 00:23:17;;;;;;;19.95;18.45;;;;;;;6.82;100.00;97900.59;2066655;28;20683;-72
2022/04/06 00:24:19;;;;;;;19.33;17.83;;;;;;;6.82;100.00;97897.16;2065960;28;20658;-73
2022/04/06 00:25:19;;;;;;;19.30;17.90;;;;;;;6.84;100.00;97898.44;2066159;28;20177;-73
2022/04/06 00:26:25;;;;;;;19.33;17.70;;;;;;;6.84;100.00;97893.13;2066766;28;20679;-73
2022/04/06 00:27:26;;;;;;;18.90;17.60;;;;;;;6.89;100.00;97895.66;2066899;28;20188;-73
2022/04/06 00:28:28;;;;;;;19.95;18.45;;;;;;;6.86;100.00;97883.00;2066682;28;20221;-73
2022/04/06 00:29:29;;;;;;;18.70;17.40;;;;;;;6.86;100.00;97895.47;2065468;28;20212;-73
2022/04/06 00:30:32;;;;;;;19.40;18.00;;;;;;;6.87;100.00;97891.75;2057590;28;20209;-73
2022/04/06 00:31:33;;;;;;;19.10;17.70;;;;;;;6.88;100.00;97893.31;2066083;28;20196;-72
2022/04/06 00:32:34;;;;;;;20.30;18.97;;;;;;;6.86;100.00;97890.16;2066576;28;20239;-73
2022/04/06 00:33:36;;;;;;;19.90;18.60;;;;;;;6.87;100.00;97889.09;2066015;28;20279;-73
2022/04/06 00:35:58;;;;;;;19.20;17.60;;;;;;;6.79;100.00;97894.03;2066212;28;20204;-72
2022/04/06 00:36:59;;;;;;;19.25;17.95;;;;;;;6.86;100.00;97887.50;2066890;28;20227;-73
2022/04/06 00:38:02;;;;;;;19.63;18.00;;;;;;;6.87;100.00;97889.09;2066612;28;20235;-73
2022/04/06 00:39:03;;;;;;;18.85;17.55;;;;;;;6.85;100.00;97884.09;2065548;28;20212;-73
2022/04/06 00:40:08;;;;;;;19.00;17.70;;;;;;;6.96;100.00;97884.66;2065532;28;20195;-73
2022/04/06 00:41:09;;;;;;;18.85;17.55;;;;;;;6.91;100.00;97882.09;2065505;28;20679;-72
2022/04/06 00:42:11;;;;;;;19.00;17.60;;;;;;;6.90;100.00;97881.31;2066226;28;20583;-73
2022/04/06 00:43:13;;;;;;;18.83;17.42;;;;;;;6.88;100.00;97877.41;2066509;28;20201;-73
2022/04/06 00:44:17;;;;;;;19.40;18.10;;;;;;;6.88;100.00;97872.13;2065922;28;20546;-73
2022/04/06 00:45:17;;;;;;;20.20;18.70;;;;;;;6.88;100.00;97874.78;2057789;28;20205;-73
2022/04/06 00:46:20;;;;;;;18.93;17.73;;;;;;;6.87;100.00;97875.84;2066117;28;20284;-73
2022/04/06 00:47:22;;;;;;;19.67;18.27;;;;;;;6.83;100.00;97874.88;2066541;28;20193;-73
2022/04/06 00:48:24;;;;;;;20.33;18.90;;;;;;;6.79;100.00;97875.47;2065786;28;20288;-73
2022/04/06 00:49:24;;;;;;;19.80;18.50;;;;;;;6.80;100.00;97885.00;2065615;28;20201;-72
2022/04/06 00:50:28;;;;;;;19.60;18.20;;;;;;;6.78;100.00;97881.09;2074202;28;20271;-73
2022/04/06 00:51:30;;;;;;;19.20;17.88;;;;;;;6.78;100.00;97884.53;2066279;28;20320;-72
2022/04/06 00:52:31;;;;;;;19.00;17.60;;;;;;;6.76;100.00;97881.38;2066508;28;20280;-72
2022/04/06 00:53:32;;;;;;;18.90;17.50;;;;;;;6.74;100.00;97875.59;2065814;28;20491;-73
2022/04/06 00:54:37;;;;;;;18.80;17.37;;;;;;;6.76;100.00;97881.38;2065893;28;20197;-72
2022/04/06 00:55:39;;;;;;;18.42;17.13;;;;;;;6.76;100.00;97877.94;2066652;28;20195;-72
2022/04/06 00:56:43;;;;;;;18.77;17.48;;;;;;;6.76;100.00;97872.63;2066447;28;20698;-73
2022/04/06 00:57:44;;;;;;;17.95;16.75;;;;;;;6.77;100.00;97874.97;2066449;28;20181;-73
2022/04/06 00:58:47;;;;;;;19.13;17.83;;;;;;;6.72;100.00;97875.09;2066678;28;20201;-72
2022/04/06 00:59:48;;;;;;;18.70;17.40;;;;;;;6.72;100.00;97871.69;2065778;28;20201;-73
2022/04/06 01:00:50;;;;;;;18.30;17.00;;;;;;;6.76;100.00;97865.47;2065946;28;20193;-72
2022/04/06 01:01:52;;;;;;;18.20;16.90;;;;;;;6.76;100.00;97862.81;2066400;28;20197;-73
2022/04/06 01:02:54;;;;;;;17.85;16.65;;;;;;;6.76;100.00;97865.47;2074037;28;20204;-73
2022/04/06 01:03:55;;;;;;;18.13;16.73;;;;;;;6.76;100.00;97868.09;2073967;28;20188;-73
2022/04/06 01:04:57;;;;;;;18.37;17.00;;;;;;;6.74;100.00;97859.69;2066599;28;20272;-73
2022/04/06 01:05:58;;;;;;;17.63;16.38;;;;;;;6.75;100.00;97865.75;2065929;28;20212;-73
2022/04/06 01:06:59;;;;;;;17.38;16.17;;;;;;;6.72;100.00;97874.31;2066489;28;20239;-73
2022/04/06 01:08:03;;;;;;;17.25;16.05;;;;;;;6.74;100.00;97877.44;2066442;28;20670;-73
2022/04/06 01:09:05;;;;;;;17.33;15.95;;;;;;;6.70;100.00;97871.97;2066349;28;20193;-73
2022/04/06 01:10:07;;;;;;;17.40;16.20;;;;;;;6.72;100.00;97869.81;2066490;28;20189;-72
2022/04/06 01:11:10;;;;;;;17.65;16.45;;;;;;;6.79;100.00;97872.03;2066321;28;20193;-72
2022/04/06 01:12:13;;;;;;;17.83;16.52;;;;;;;6.78;100.00;97868.63;2066288;28;20212;-73
2022/04/06 01:13:14;;;;;;;18.40;17.10;;;;;;;6.79;100.00;97861.44;2066611;28;20604;-73
2022/04/06 01:14:16;;;;;;;18.02;16.77;;;;;;;6.83;100.00;97864.25;2066405;28;20224;-73
2022/04/06 01:15:23;;;;;;;18.73;17.20;;;;;;;6.83;100.00;97865.03;2066380;28;20548;-72
2022/04/06 01:16:25;;;;;;;18.33;16.90;;;;;;;6.86;100.00;97863.66;2066539;28;20252;-73
2022/04/06 01:17:33;;;;;;;17.65;16.55;;;;;;;6.94;100.00;97873.53;2066501;28;20189;-72
2022/04/06 01:18:36;;;;;;;18.58;17.25;;;;;;;6.96;100.00;97868.75;2066558;28;20260;-73
2022/04/06 01:19:39;;;;;;;19.70;18.20;;;;;;;6.91;100.00;97871.50;2065590;28;20208;-73
2022/04/06 01:20:41;;;;;;;18.83;17.67;;;;;;;6.96;100.00;97874.84;2065824;28;20271;-72
2022/04/06 01:21:41;;;;;;;18.88;17.52;;;;;;;6.93;100.00;97870.13;2065912;28;20221;-73
2022/04/06 01:22:45;;;;;;;19.10;17.80;;;;;;;6.92;100.00;97878.38;2066252;28;20272;-72
2022/04/06 01:23:46;;;;;;;19.00;17.60;;;;;;;6.96;100.00;97871.41;2066474;28;20608;-73
2022/04/06 01:24:49;;;;;;;19.42;17.85;;;;;;;6.99;100.00;97870.78;2065527;28;20259;-73
2022/04/06 01:25:52;;;;;;;18.95;17.55;;;;;;;6.98;100.00;97871.88;2065864;28;20178;-73
2022/04/06 01:26:55;;;;;;;19.07;17.73;;;;;;;6.97;100.00;97859.69;2066293;28;20291;-73
2022/04/06 01:27:56;;;;;;;19.17;17.65;;;;;;;6.99;100.00;97860.19;2073272;28;20204;-73
2022/04/06 01:28:57;;;;;;;19.50;17.88;;;;;;;7.03;100.00;97861.91;2065595;28;20205;-72
2022/04/06 01:29:58;;;;;;;18.73;17.42;;;;;;;7.00;100.00;97859.88;2065680;28;20192;-73
2022/04/06 01:31:00;;;;;;;18.43;17.23;;;;;;;6.97;100.00;97860.47;2065064;28;20216;-73
2022/04/06 01:32:09;;;;;;;18.67;17.27;;;;;;;6.99;100.00;97873.44;2065597;28;20201;-73
2022/04/06 01:33:11;;;;;;;19.30;17.90;;;;;;;7.00;100.00;97869.69;2073690;28;20199;-73
2022/04/06 01:34:12;;;;;;;19.33;17.90;;;;;;;7.01;100.00;97868.59;2073891;28;20188;-73
2022/04/06 01:35:14;;;;;;;19.40;17.90;;;;;;;7.00;100.00;97859.09;2065420;28;20193;-73
2022/04/06 01:36:15;;;;;;;18.95;17.40;;;;;;;7.01;100.00;97861.44;2065033;28;20227;-73
2022/04/06 01:37:17;;;;;;;19.75;18.10;;;;;;;7.01;100.00;97855.34;2066142;28;20223;-73
2022/04/06 01:38:19;;;;;;;19.30;17.92;;;;;;;7.02;100.00;97870.94;2066315;28;20192;-73
2022/04/06 01:39:22;;;;;;;19.52;18.15;;;;;;;7.01;100.00;97865.97;2066191;28;20724;-73
2022/04/06 01:40:25;;;;;;;19.30;17.90;;;;;;;6.97;100.00;97865.00;2066235;28;20217;-73
2022/04/06 01:41:31;;;;;;;19.42;17.83;;;;;;;6.98;100.00;97869.22;2065368;28;20207;-73
2022/04/06 01:42:32;;;;;;;19.23;17.73;;;;;;;7.03;100.00;97871.75;2065621;28;20213;-72
2022/04/06 01:43:37;;;;;;;20.37;18.53;;;;;;;7.04;100.00;97875.97;2066114;28;20267;-73
2022/04/06 01:44:44;;;;;;;18.08;16.77;;;;;;;7.03;100.00;97872.53;2066153;28;20166;-73
2022/04/06 01:45:45;;;;;;;17.95;16.55;;;;;;;7.05;100.00;97874.91;2064938;28;20201;-72
2022/04/06 01:46:46;;;;;;;17.73;16.38;;;;;;;7.05;100.00;97869.59;2065504;28;20200;-73
2022/04/06 01:47:48;;;;;;;18.80;17.15;;;;;;;7.06;100.00;97873.81;2066035;28;20272;-72
2022/04/06 01:53:04;;;;;;;18.85;17.25;;;;;;;7.17;100.00;97875.13;2041142;29;20322;-73
2022/04/06 01:54:06;;;;;;;19.42;17.73;;;;;;;7.21;100.00;97878.75;2041504;29;20222;-73
2022/04/06 01:55:09;;;;;;;20.20;18.45;;;;;;;7.25;100.00;97879.69;2041351;29;20195;-73
2022/04/06 01:56:11;;;;;;;19.55;17.73;;;;;;;7.29;100.00;97880.66;2041433;29;20214;-72
2022/04/06 01:57:13;;;;;;;19.25;17.65;;;;;;;7.37;100.00;97885.22;2041140;29;20207;-73
2022/04/06 01:58:16;;;;;;;19.75;17.90;;;;;;;7.37;100.00;97879.13;2041211;29;20199;-72
2022/04/06 01:59:18;;;;;;;19.80;18.10;;;;;;;7.37;100.00;97874.59;2073123;28;20295;-73
2022/04/06 02:00:20;;;;;;;19.17;17.50;;;;;;;7.39;100.00;97879.63;2073631;28;20200;-72
2022/04/06 02:01:21;;;;;;;19.83;18.13;;;;;;;7.42;100.00;97878.22;2064836;28;20228;-73
2022/04/06 02:02:25;;;;;;;20.90;19.10;;;;;;;7.43;100.00;97877.94;2057255;28;20212;-73
2022/04/06 02:03:25;;;;;;;19.95;18.35;;;;;;;7.44;100.00;97873.41;2065517;28;20212;-72
2022/04/06 02:04:27;;;;;;;19.53;17.93;;;;;;;7.44;100.00;97887.44;2066152;28;20193;-72
2022/04/06 02:05:33;;;;;;;19.75;18.15;;;;;;;7.52;100.00;97885.94;2065378;28;20201;-72
2022/04/06 02:06:34;;;;;;;19.27;17.73;;;;;;;7.58;100.00;97884.72;2065239;28;20751;-72
2022/04/06 02:07:36;;;;;;;18.73;17.17;;;;;;;7.59;100.00;97886.28;2065958;28;20604;-72
2022/04/06 02:08:37;;;;;;;19.10;17.25;;;;;;;7.57;100.00;97880.50;2073388;28;20612;-73
2022/04/06 02:09:41;;;;;;;18.27;16.87;;;;;;;7.59;100.00;97887.06;2065291;28;20193;-72
2022/04/06 02:10:42;;;;;;;18.90;17.50;;;;;;;7.62;100.00;97885.66;2065385;28;20428;-73
2022/04/06 02:11:44;;;;;;;18.63;17.20;;;;;;;7.59;100.00;97883.63;2065903;28;20272;-73
2022/04/06 02:12:48;;;;;;;18.92;17.30;;;;;;;7.64;100.00;97896.75;2065906;28;20280;-73
2022/04/06 02:13:51;;;;;;;17.80;16.42;;;;;;;7.63;100.00;97892.53;2064809;28;20260;-73
2022/04/06 02:14:54;;;;;;;18.92;17.42;;;;;;;7.71;100.00;97891.03;2065447;28;20221;-73
2022/04/06 02:15:54;;;;;;;19.60;18.10;;;;;;;7.69;100.00;97885.25;2065892;28;20660;-73
2022/04/06 02:16:56;;;;;;;19.63;18.20;;;;;;;7.68;100.00;97895.06;2066115;28;20519;-72
2022/04/06 02:17:57;;;;;;;19.23;17.50;;;;;;;7.71;100.00;97897.09;2065941;28;20652;-73
2022/04/06 02:19:02;;;;;;;18.80;17.20;;;;;;;7.71;100.00;97893.66;2065178;28;20251;-73
2022/04/06 02:20:05;;;;;;;19.50;17.95;;;;;;;7.70;100.00;97884.94;2065392;28;20184;-73
2022/04/06 02:21:07;;;;;;;18.58;17.17;;;;;;;7.70;100.00;97886.81;2065340;28;20193;-72
2022/04/06 02:22:08;;;;;;;19.83;18.35;;;;;;;7.68;100.00;97883.69;2065933;28;20286;-73
2022/04/06 02:23:10;;;;;;;18.63;17.25;;;;;;;7.67;100.00;97882.91;2065082;28;20208;-73
2022/04/06 02:24:11;;;;;;;18.23;16.92;;;;;;;7.67;100.00;97882.13;2065055;28;20201;-73
2022/04/06 02:25:14;;;;;;;18.00;16.70;;;;;;;7.71;100.00;97886.50;2065185;28;20212;-73
2022/04/06 02:26:17;;;;;;;18.27;16.98;;;;;;;7.70;100.00;97895.53;2056787;28;20205;-73
2022/04/06 02:27:19;;;;;;;18.05;16.75;;;;;;;7.71;100.00;97883.06;2065472;28;20189;-73
2022/04/06 02:28:21;;;;;;;17.92;16.63;;;;;;;7.71;100.00;97886.50;2065907;28;20189;-73
2022/04/06 02:29:23;;;;;;;17.80;16.40;;;;;;;7.74;100.00;97888.56;2073225;28;20196;-73
2022/04/06 02:30:25;;;;;;;17.13;15.82;;;;;;;7.71;100.00;97877.75;2065283;28;20197;-73
2022/04/06 02:31:26;;;;;;;18.05;16.55;;;;;;;7.77;100.00;97872.00;2065392;28;20264;-73
2022/04/06 02:32:33;;;;;;;18.47;17.07;;;;;;;7.77;100.00;97877.31;2065298;28;20694;-73
2022/04/06 02:33:34;;;;;;;18.20;16.90;;;;;;;7.82;100.00;97887.81;2065571;28;20176;-73
2022/04/06 02:34:36;;;;;;;17.00;15.87;;;;;;;7.82;100.00;97887.81;2065183;28;20275;-72
2022/04/06 02:35:38;;;;;;;17.15;15.95;;;;;;;7.81;100.00;97888.88;2065484;28;20189;-73
2022/04/06 02:36:39;;;;;;;17.80;16.50;;;;;;;7.84;100.00;97882.97;2064110;28;20221;-72
2022/04/06 02:37:43;;;;;;;17.47;16.37;;;;;;;7.81;100.00;97875.59;2057134;28;20289;-73
2022/04/06 02:38:44;;;;;;;17.60;16.50;;;;;;;7.84;100.00;97869.69;2065252;28;20220;-72
2022/04/06 02:39:49;;;;;;;17.97;16.73;;;;;;;7.83;100.00;97876.09;2065790;28;20184;-72
2022/04/06 02:40:52;;;;;;;17.20;16.05;;;;;;;7.87;100.00;97886.88;2065977;28;20440;-73
2022/04/06 02:41:55;;;;;;;17.17;15.98;;;;;;;7.90;100.00;97881.72;2064627;28;20697;-72
2022/04/06 02:42:57;;;;;;;17.50;16.30;;;;;;;7.95;100.00;97878.16;2057173;28;20213;-73
2022/04/06 02:43:57;;;;;;;18.02;16.73;;;;;;;7.90;100.00;97881.72;2065173;28;20201;-72
2022/04/06 02:44:59;;;;;;;17.73;16.47;;;;;;;7.97;100.00;97873.31;2065892;28;20283;-72
2022/04/06 02:46:03;;;;;;;17.52;16.23;;;;;;;7.96;100.00;97873.63;2065783;28;20197;-73
2022/04/06 02:47:06;;;;;;;17.80;16.60;;;;;;;7.95;100.00;97872.84;2065854;28;20201;-72
2022/04/06 02:48:08;;;;;;;17.67;16.48;;;;;;;7.93;100.00;97875.81;2065789;28;20287;-73
2022/04/06 02:49:10;;;;;;;17.80;16.60;;;;;;;7.87;100.00;97877.03;2065841;28;20659;-72
2022/04/06 02:50:11;;;;;;;18.02;16.80;;;;;;;7.89;100.00;97882.03;2066039;28;20197;-72
2022/04/06 02:51:12;;;;;;;18.17;16.97;;;;;;;7.88;100.00;97880.47;2065342;28;20228;-72
2022/04/06 02:52:13;;;;;;;18.60;17.20;;;;;;;7.83;100.00;97877.97;2065906;28;20173;-72
2022/04/06 02:53:15;;;;;;;17.80;16.60;;;;;;;7.79;100.00;97877.00;2065110;28;20660;-73
2022/04/06 02:54:17;;;;;;;18.13;16.83;;;;;;;7.78;100.00;97889.50;2065214;28;20193;-72
2022/04/06 02:55:19;;;;;;;17.92;16.73;;;;;;;7.77;100.00;97882.63;2073156;28;20250;-73
2022/04/06 02:56:22;;;;;;;18.25;16.92;;;;;;;7.81;100.00;97899.50;2073245;28;20246;-72
2022/04/06 02:57:24;;;;;;;17.95;16.75;;;;;;;7.86;100.00;97903.91;2065740;28;20189;-73
2022/04/06 02:58:25;;;;;;;17.33;16.23;;;;;;;7.89;100.00;97890.00;2065928;28;20189;-73
2022/04/06 02:59:26;;;;;;;17.77;16.57;;;;;;;7.89;100.00;97885.47;2065881;28;20181;-72
2022/04/06 03:00:28;;;;;;;17.10;16.00;;;;;;;7.93;100.00;97881.13;2065736;28;20197;-72
2022/04/06 03:01:30;;;;;;;17.40;16.30;;;;;;;7.96;100.00;97884.25;2065895;28;20192;-72
2022/04/06 03:02:33;;;;;;;17.35;16.25;;;;;;;7.92;100.00;97882.22;2073211;28;20200;-72
2022/04/06 03:03:35;;;;;;;17.75;16.35;;;;;;;8.00;100.00;97878.03;2074463;28;20529;-72
2022/04/06 03:04:36;;;;;;;17.98;16.77;;;;;;;8.03;100.00;97892.56;2067382;28;20258;-72
2022/04/06 03:05:39;;;;;;;18.10;16.90;;;;;;;8.03;100.00;97879.28;2067316;28;20189;-72
2022/04/06 03:06:41;;;;;;;17.42;16.23;;;;;;;8.05;100.00;97879.75;2066287;28;20278;-72
2022/04/06 03:07:43;;;;;;;17.05;16.00;;;;;;;8.08;100.00;97892.41;2058664;28;20268;-72
2022/04/06 03:08:47;;;;;;;17.65;16.45;;;;;;;8.11;100.00;97883.84;2066732;28;20186;-73
2022/04/06 03:09:49;;;;;;;17.35;16.23;;;;;;;8.10;100.00;97884.94;2067285;28;20601;-73
2022/04/06 03:10:51;;;;;;;17.50;16.40;;;;;;;8.09;100.00;97883.38;2066610;28;20205;-73
2022/04/06 03:11:53;;;;;;;17.25;16.15;;;;;;;8.11;100.00;97889.16;2058554;28;20449;-73
2022/04/06 03:12:54;;;;;;;17.52;16.42;;;;;;;8.12;100.00;97888.06;2066705;28;20189;-72
2022/04/06 03:13:58;;;;;;;18.08;16.80;;;;;;;8.11;100.00;97886.50;2067313;28;20247;-74
2022/04/06 03:15:02;;;;;;;17.58;16.42;;;;;;;8.10;100.00;97892.91;2066353;28;20653;-73
2022/04/06 03:16:06;;;;;;;17.58;16.38;;;;;;;8.14;100.00;97883.22;2058483;28;20256;-72
2022/04/06 03:17:08;;;;;;;17.33;16.20;;;;;;;8.14;100.00;97886.66;2066797;28;20659;-73
2022/04/06 03:18:10;;;;;;;17.38;16.10;;;;;;;8.19;100.00;97888.41;2066575;28;20284;-73
2022/04/06 03:19:11;;;;;;;17.48;16.27;;;;;;;8.27;100.00;97887.63;2058599;28;20241;-72
2022/04/06 03:20:13;;;;;;;18.00;16.70;;;;;;;8.20;100.00;97885.44;2058560;28;20210;-72
2022/04/06 03:21:15;;;;;;;17.63;16.52;;;;;;;8.21;100.00;97899.50;2066391;28;20304;-72
2022/04/06 03:22:17;;;;;;;18.02;16.83;;;;;;;8.18;100.00;97892.16;2067398;28;20200;-73
2022/04/06 03:23:21;;;;;;;17.67;16.58;;;;;;;8.18;100.00;97892.94;2067239;28;20189;-73
2022/04/06 03:24:25;;;;;;;17.85;16.65;;;;;;;8.20;100.00;97893.41;2066366;28;20240;-73
2022/04/06 03:25:26;;;;;;;17.55;16.45;;;;;;;8.21;100.00;97888.88;2066862;28;20566;-72
2022/04/06 03:26:28;;;;;;;18.00;16.77;;;;;;;8.33;100.00;97888.25;2067247;28;20197;-72
2022/04/06 03:27:30;;;;;;;17.98;16.58;;;;;;;8.31;100.00;97891.22;2067148;28;20609;-72
2022/04/06 03:28:32;;;;;;;17.23;16.13;;;;;;;8.27;100.00;97889.50;2066531;28;20197;-72
2022/04/06 03:29:33;;;;;;;17.50;16.33;;;;;;;8.22;100.00;97893.09;2066780;28;20688;-73
2022/04/06 03:30:36;;;;;;;17.83;16.53;;;;;;;8.22;100.00;97901.06;2067049;28;20561;-72
2022/04/06 03:31:38;;;;;;;17.95;16.65;;;;;;;8.21;100.00;97896.84;2066406;28;20205;-72
2022/04/06 03:32:41;;;;;;;17.98;16.77;;;;;;;8.22;100.00;97898.41;2066577;28;20219;-73
2022/04/06 03:33:42;;;;;;;18.13;16.92;;;;;;;8.24;100.00;97898.88;2067106;28;20192;-72
2022/04/06 03:34:43;;;;;;;17.90;16.75;;;;;;;8.21;100.00;97902.94;2066432;28;20205;-73
2022/04/06 03:35:45;;;;;;;18.07;16.87;;;;;;;8.20;100.00;97890.75;2058551;28;20189;-73
2022/04/06 03:36:49;;;;;;;18.52;17.23;;;;;;;8.19;100.00;97904.34;2058142;28;20221;-73
2022/04/06 03:37:51;;;;;;;18.20;17.00;;;;;;;8.20;100.00;97895.28;2066108;28;20699;-73
2022/04/06 03:38:52;;;;;;;18.77;17.48;;;;;;;8.20;100.00;97897.94;2066500;28;20271;-72
2022/04/06 03:39:53;;;;;;;18.50;17.20;;;;;;;8.25;100.00;97900.44;2066036;28;20299;-73
2022/04/06 03:40:55;;;;;;;18.00;16.77;;;;;;;8.26;100.00;97898.56;2066439;28;20197;-72
2022/04/06 03:41:59;;;;;;;17.95;16.85;;;;;;;8.32;100.00;97908.72;2067024;28;20605;-72
2022/04/06 03:43:02;;;;;;;18.40;17.10;;;;;;;8.27;100.00;97898.25;2067038;28;20681;-73
2022/04/06 03:44:04;;;;;;;17.70;16.55;;;;;;;8.26;100.00;97899.38;2065866;28;20273;-72
2022/04/06 03:45:07;;;;;;;18.13;16.88;;;;;;;8.26;100.00;97915.31;2066434;28;20185;-73
2022/04/06 03:46:09;;;;;;;18.33;17.13;;;;;;;8.28;100.00;97901.69;2066972;28;20197;-72
2022/04/06 03:47:10;;;;;;;17.85;16.65;;;;;;;8.25;100.00;97903.09;2066985;28;20552;-73
2022/04/06 03:48:12;;;;;;;18.50;17.30;;;;;;;8.29;100.00;97904.03;2067000;28;20276;-73
2022/04/06 03:49:14;;;;;;;17.92;16.73;;;;;;;8.29;100.00;97893.41;2067162;28;20192;-73
2022/04/06 03:50:17;;;;;;;17.85;16.65;;;;;;;8.27;100.00;97892.16;2067111;28;20636;-73
2022/04/06 03:51:18;;;;;;;17.90;16.70;;;;;;;8.28;100.00;97896.38;2065255;28;20694;-72
2022/04/06 03:52:20;;;;;;;17.83;16.73;;;;;;;8.25;100.00;97903.09;2058303;28;20202;-72
2022/04/06 03:53:22;;;;;;;18.50;17.20;;;;;;;8.23;100.00;97900.75;2066397;28;20660;-72
2022/04/06 03:54:22;;;;;;;18.52;17.33;;;;;;;8.39;100.00;97903.00;2066925;28;20741;-73
2022/04/06 03:55:24;;;;;;;17.77;16.57;;;;;;;8.39;100.00;97900.34;2067018;28;20607;-73
2022/04/06 03:56:26;;;;;;;18.10;16.80;;;;;;;8.30;100.00;97910.94;2066931;28;20200;-73
2022/04/06 03:57:28;;;;;;;18.00;16.65;;;;;;;8.25;100.00;97900.44;2066947;28;20667;-72
2022/04/06 03:58:30;;;;;;;18.67;17.38;;;;;;;8.21;100.00;97907.47;2066841;28;20189;-73
2022/04/06 03:59:33;;;;;;;18.33;17.08;;;;;;;8.24;100.00;97906.84;2066935;28;20243;-73
2022/04/06 04:00:35;;;;;;;19.08;17.58;;;;;;;8.21;100.00;97905.59;2067148;28;20251;-73
2022/04/06 04:01:36;;;;;;;19.17;17.77;;;;;;;8.25;100.00;97905.75;2066219;28;20205;-73
2022/04/06 04:02:38;;;;;;;19.30;17.80;;;;;;;8.20;100.00;97906.69;2066373;28;20671;-72
2022/04/06 04:03:39;;;;;;;18.80;17.50;;;;;;;8.16;100.00;97900.41;2067005;28;20554;-73
2022/04/06 04:04:41;;;;;;;19.60;17.70;;;;;;;8.20;100.00;97905.91;2066851;28;20213;-72
2022/04/06 04:05:41;;;;;;;18.50;17.20;;;;;;;8.13;100.00;97909.00;2067067;28;20200;-73
2022/04/06 04:06:44;;;;;;;18.03;16.80;;;;;;;8.20;100.00;97905.91;2066513;28;20271;-72
2022/04/06 04:07:44;;;;;;;17.83;16.63;;;;;;;8.14;100.00;97907.13;2074207;28;20209;-72
2022/04/06 04:08:46;;;;;;;18.27;17.07;;;;;;;8.10;100.00;97906.19;2074492;28;20196;-72
2022/04/06 04:09:50;;;;;;;18.17;16.98;;;;;;;8.09;100.00;97909.94;2066169;28;20535;-72
2022/04/06 04:10:55;;;;;;;18.48;17.08;;;;;;;8.06;100.00;97907.88;2066368;28;20275;-72
2022/04/06 04:11:56;;;;;;;18.42;17.23;;;;;;;8.09;100.00;97905.41;2066914;28;20561;-72
2022/04/06 04:12:58;;;;;;;18.25;16.83;;;;;;;8.17;100.00;97901.22;2066759;28;20678;-72
2022/04/06 04:14:00;;;;;;;17.98;16.55;;;;;;;8.17;100.00;97906.53;2065600;28;20246;-73
2022/04/06 04:15:02;;;;;;;17.88;16.67;;;;;;;8.12;100.00;97907.44;2065189;28;20207;-73
2022/04/06 04:16:03;;;;;;;19.25;17.77;;;;;;;8.09;100.00;97909.94;2058141;28;20204;-73
2022/04/06 04:17:06;;;;;;;19.05;17.65;;;;;;;8.09;100.00;97909.94;2066162;28;20224;-72
2022/04/06 04:18:08;;;;;;;19.67;18.17;;;;;;;8.07;100.00;97912.09;2066988;28;20197;-72
2022/04/06 04:19:09;;;;;;;19.33;17.92;;;;;;;8.05;100.00;97916.94;2066725;28;20189;-72
2022/04/06 04:20:13;;;;;;;18.90;17.60;;;;;;;8.07;100.00;97920.06;2074229;28;20196;-72
2022/04/06 04:21:32;;;;;;;19.40;17.85;;;;;;;8.10;100.00;97911.50;2073278;28;20242;-73
2022/04/06 04:22:34;;;;;;;18.77;17.48;;;;;;;8.09;100.00;97920.56;2066826;28;20188;-73
2022/04/06 04:23:35;;;;;;;18.85;17.35;;;;;;;8.09;100.00;97923.22;2066812;28;20193;-73
2022/04/06 04:24:37;;;;;;;18.45;17.00;;;;;;;8.07;100.00;97914.75;2066524;28;20570;-72
2022/04/06 04:25:39;;;;;;;18.50;17.10;;;;;;;8.05;100.00;97920.38;2066543;28;20694;-73
2022/04/06 04:26:42;;;;;;;18.27;16.98;;;;;;;8.03;100.00;97914.59;2066138;28;20192;-72
2022/04/06 04:27:44;;;;;;;18.33;17.02;;;;;;;8.12;100.00;97904.00;2057936;28;20202;-73
2022/04/06 04:28:45;;;;;;;19.15;17.70;;;;;;;8.17;100.00;97915.28;2066333;28;20197;-72
2022/04/06 04:29:48;;;;;;;19.03;17.63;;;;;;;8.17;100.00;97915.28;2066881;28;20247;-73
2022/04/06 04:30:49;;;;;;;18.48;17.08;;;;;;;8.17;100.00;97914.50;2066644;28;20651;-73
2022/04/06 04:31:51;;;;;;;18.70;17.40;;;;;;;8.15;100.00;97924.63;2066662;28;20536;-72
2022/04/06 04:32:52;;;;;;;18.73;17.50;;;;;;;8.16;100.00;97910.25;2066666;28;20237;-72
2022/04/06 04:33:53;;;;;;;18.90;17.60;;;;;;;8.18;100.00;97918.72;2065554;28;20209;-72
2022/04/06 04:34:55;;;;;;;18.47;17.17;;;;;;;8.17;100.00;97917.94;2066300;28;20272;-73
2022/04/06 04:35:56;;;;;;;18.67;17.38;;;;;;;8.17;100.00;97922.47;2073207;28;20204;-72
2022/04/06 04:36:58;;;;;;;18.50;17.10;;;;;;;8.15;100.00;97928.06;2065966;28;20280;-72
2022/04/06 04:37:59;;;;;;;19.50;17.77;;;;;;;8.20;100.00;97924.50;2058014;28;20240;-73
2022/04/06 04:39:02;;;;;;;18.67;17.37;;;;;;;8.19;100.00;97922.94;2057918;28;20286;-72
2022/04/06 04:40:07;;;;;;;19.00;17.60;;;;;;;8.17;100.00;97928.56;2058179;28;20545;-73
2022/04/06 04:41:09;;;;;;;19.15;17.55;;;;;;;8.15;100.00;97932.59;2066144;28;20236;-72
2022/04/06 04:42:11;;;;;;;18.92;17.63;;;;;;;8.16;100.00;97931.50;2065893;28;20197;-72
2022/04/06 04:43:13;;;;;;;19.30;18.00;;;;;;;8.16;100.00;97937.59;2057612;28;20205;-72
2022/04/06 04:44:13;;;;;;;19.17;17.73;;;;;;;8.17;100.00;97933.09;2057757;28;20201;-72
2022/04/06 04:45:16;;;;;;;19.20;17.90;;;;;;;8.16;100.00;97926.97;2065931;28;20217;-72
2022/04/06 04:46:17;;;;;;;19.33;17.92;;;;;;;8.19;100.00;97928.25;2066533;28;20228;-72
2022/04/06 04:47:19;;;;;;;19.40;18.00;;;;;;;8.23;100.00;97935.28;2065904;28;20205;-72
2022/04/06 04:48:22;;;;;;;19.23;17.83;;;;;;;8.26;100.00;97927.81;2066005;28;20200;-73
2022/04/06 04:49:25;;;;;;;19.90;18.40;;;;;;;8.27;100.00;97926.72;2066855;28;20276;-72
2022/04/06 04:50:29;;;;;;;20.10;18.50;;;;;;;8.29;100.00;97940.47;2066591;28;20276;-72
2022/04/06 04:51:31;;;;;;;19.77;18.38;;;;;;;8.29;100.00;97933.28;2065578;28;20228;-73